sensor_id;sensor_type;location;lat;lon;timestamp;pressure;altitude;pressure_sealevel;temperature;humidity
17936;BME280;9093;52.062;4.508;2022-08-21T00:02:33;101970.50;;;19.12;59.77
17936;BME280;9093;52.062;4.508;2022-08-21T00:05:13;101966.19;;;19.09;60.03
17936;BME280;9093;52.062;4.508;2022-08-21T00:07:53;101964.44;;;19.08;59.74
17936;BME280;9093;52.062;4.508;2022-08-21T00:10:34;101968.13;;;19.07;59.92
17936;BME280;9093;52.062;4.508;2022-08-21T00:13:14;101968.13;;;19.07;60.09
17936;BME280;9093;52.062;4.508;2022-08-21T00:15:55;101976.47;;;19.04;60.20
17936;BME280;9093;52.062;4.508;2022-08-21T00:18:35;101965.63;;;19.04;60.17
17936;BME280;9093;52.062;4.508;2022-08-21T00:21:15;101964.66;;;19.05;60.18
17936;BME280;9093;52.062;4.508;2022-08-21T00:23:56;101962.06;;;19.04;60.19
17936;BME280;9093;52.062;4.508;2022-08-21T00:26:36;101964.75;;;19.04;60.29
17936;BME280;9093;52.062;4.508;2022-08-21T00:29:17;101956.78;;;19.02;60.38
17936;BME280;9093;52.062;4.508;2022-08-21T00:31:57;101957.94;;;18.98;60.33
17936;BME280;9093;52.062;4.508;2022-08-21T00:34:38;101954.28;;;18.99;60.38
17936;BME280;9093;52.062;4.508;2022-08-21T00:37:19;101957.94;;;18.98;60.61
17936;BME280;9093;52.062;4.508;2022-08-21T00:39:59;101957.94;;;18.98;60.62
17936;BME280;9093;52.062;4.508;2022-08-21T00:42:39;101953.50;;;18.97;60.65
17936;BME280;9093;52.062;4.508;2022-08-21T00:45:20;101959.16;;;18.94;60.72
17936;BME280;9093;52.062;4.508;2022-08-21T00:48:01;101955.69;;;18.92;60.72
17936;BME280;9093;52.062;4.508;2022-08-21T00:50:46;101959.59;;;18.88;60.86
17936;BME280;9093;52.062;4.508;2022-08-21T00:53:28;101956.22;;;18.84;61.12
17936;BME280;9093;52.062;4.508;2022-08-21T00:56:10;101951.91;;;18.82;61.16
17936;BME280;9093;52.062;4.508;2022-08-21T00:58:52;101941.09;;;18.82;61.21
17936;BME280;9093;52.062;4.508;2022-08-21T01:01:34;101948.44;;;18.80;61.30
17936;BME280;9093;52.062;4.508;2022-08-21T01:04:14;101947.56;;;18.79;61.22
17936;BME280;9093;52.062;4.508;2022-08-21T01:06:56;101950.50;;;18.76;61.45
17936;BME280;9093;52.062;4.508;2022-08-21T01:09:36;101947.13;;;18.73;61.42
17936;BME280;9093;52.062;4.508;2022-08-21T01:12:17;101944.56;;;18.71;61.41
17936;BME280;9093;52.062;4.508;2022-08-21T01:14:57;101939.25;;;18.70;61.57
17936;BME280;9093;52.062;4.508;2022-08-21T01:17:38;101942.81;;;18.70;61.51
17936;BME280;9093;52.062;4.508;2022-08-21T01:20:18;101941.94;;;18.70;61.41
17936;BME280;9093;52.062;4.508;2022-08-21T01:23:03;101940.22;;;18.69;61.51
17936;BME280;9093;52.062;4.508;2022-08-21T01:25:43;101938.59;;;18.66;61.75
17936;BME280;9093;52.062;4.508;2022-08-21T01:28:23;101945.19;;;18.62;61.81
17936;BME280;9093;52.062;4.508;2022-08-21T01:31:05;101941.84;;;18.59;61.75
17936;BME280;9093;52.062;4.508;2022-08-21T01:33:45;101937.41;;;18.58;61.94
17936;BME280;9093;52.062;4.508;2022-08-21T01:36:26;101940.13;;;18.58;61.89
17936;BME280;9093;52.062;4.508;2022-08-21T01:39:07;101938.38;;;18.57;61.96
17936;BME280;9093;52.062;4.508;2022-08-21T01:41:47;101930.44;;;18.54;61.83
17936;BME280;9093;52.062;4.508;2022-08-21T01:44:27;101938.00;;;18.48;62.07
17936;BME280;9093;52.062;4.508;2022-08-21T01:47:08;101941.47;;;18.51;62.15
17936;BME280;9093;52.062;4.508;2022-08-21T01:49:48;101942.44;;;18.49;62.03
17936;BME280;9093;52.062;4.508;2022-08-21T01:52:29;101941.66;;;18.47;62.17
17936;BME280;9093;52.062;4.508;2022-08-21T01:55:09;101930.84;;;18.47;62.26
17936;BME280;9093;52.062;4.508;2022-08-21T01:57:50;101926.66;;;18.43;62.33
17936;BME280;9093;52.062;4.508;2022-08-21T02:00:30;101925.78;;;18.43;62.21
17936;BME280;9093;52.062;4.508;2022-08-21T02:03:10;101922.19;;;18.42;62.24
17936;BME280;9093;52.062;4.508;2022-08-21T02:05:50;101915.94;;;18.42;62.43
17936;BME280;9093;52.062;4.508;2022-08-21T02:08:31;101911.38;;;18.42;62.47
17936;BME280;9093;52.062;4.508;2022-08-21T02:11:11;101912.25;;;18.43;62.18
17936;BME280;9093;52.062;4.508;2022-08-21T02:13:52;101919.72;;;18.39;62.46
17936;BME280;9093;52.062;4.508;2022-08-21T02:16:32;101911.81;;;18.36;62.62
17936;BME280;9093;52.062;4.508;2022-08-21T02:19:13;101910.94;;;18.36;62.48
17936;BME280;9093;52.062;4.508;2022-08-21T02:21:53;101912.03;;;18.33;62.53
17936;BME280;9093;52.062;4.508;2022-08-21T02:24:33;101911.19;;;18.33;62.60
17936;BME280;9093;52.062;4.508;2022-08-21T02:27:13;101908.56;;;18.31;62.70
17936;BME280;9093;52.062;4.508;2022-08-21T02:29:54;101909.72;;;18.27;62.72
17936;BME280;9093;52.062;4.508;2022-08-21T02:32:35;101917.00;;;18.27;62.66
17936;BME280;9093;52.062;4.508;2022-08-21T02:35:15;101917.75;;;18.29;62.83
17936;BME280;9093;52.062;4.508;2022-08-21T02:38:00;101917.84;;;18.27;62.80
17936;BME280;9093;52.062;4.508;2022-08-21T02:40:41;101909.00;;;18.25;62.87
17936;BME280;9093;52.062;4.508;2022-08-21T02:43:23;101908.22;;;18.23;62.92
17936;BME280;9093;52.062;4.508;2022-08-21T02:46:04;101908.22;;;18.23;62.88
17936;BME280;9093;52.062;4.508;2022-08-21T02:48:45;101907.44;;;18.21;62.97
17936;BME280;9093;52.062;4.508;2022-08-21T02:51:26;101898.38;;;18.22;62.97
17936;BME280;9093;52.062;4.508;2022-08-21T02:54:06;101903.03;;;18.20;63.00
17936;BME280;9093;52.062;4.508;2022-08-21T02:56:46;101896.88;;;18.18;62.91
17936;BME280;9093;52.062;4.508;2022-08-21T02:59:26;101903.25;;;18.17;62.89
17936;BME280;9093;52.062;4.508;2022-08-21T03:02:07;101899.03;;;18.13;63.22
17936;BME280;9093;52.062;4.508;2022-08-21T03:04:47;101898.25;;;18.11;63.21
17936;BME280;9093;52.062;4.508;2022-08-21T03:07:27;101902.16;;;18.07;63.40
17936;BME280;9093;52.062;4.508;2022-08-21T03:10:07;101901.19;;;18.08;63.35
17936;BME280;9093;52.062;4.508;2022-08-21T03:12:48;101888.84;;;18.04;63.41
17936;BME280;9093;52.062;4.508;2022-08-21T03:15:28;101898.78;;;18.03;63.52
17936;BME280;9093;52.062;4.508;2022-08-21T03:18:09;101885.41;;;18.02;63.40
17936;BME280;9093;52.062;4.508;2022-08-21T03:20:50;101882.78;;;18.00;63.45
17936;BME280;9093;52.062;4.508;2022-08-21T03:23:30;101885.25;;;18.03;63.54
17936;BME280;9093;52.062;4.508;2022-08-21T03:26:10;101879.13;;;18.01;63.63
17936;BME280;9093;52.062;4.508;2022-08-21T03:28:51;101872.84;;;18.01;63.69
17936;BME280;9093;52.062;4.508;2022-08-21T03:31:31;101876.53;;;18.00;63.47
17936;BME280;9093;52.062;4.508;2022-08-21T03:34:11;101880.19;;;17.99;63.75
17936;BME280;9093;52.062;4.508;2022-08-21T03:36:52;101875.66;;;17.99;63.64
17936;BME280;9093;52.062;4.508;2022-08-21T03:39:32;101875.75;;;17.98;63.82
17936;BME280;9093;52.062;4.508;2022-08-21T03:42:13;101865.91;;;17.97;63.57
17936;BME280;9093;52.062;4.508;2022-08-21T03:44:53;101880.19;;;17.99;63.66
17936;BME280;9093;52.062;4.508;2022-08-21T03:47:34;101873.13;;;17.96;63.61
17936;BME280;9093;52.062;4.508;2022-08-21T03:50:15;101872.50;;;17.93;63.99
17936;BME280;9093;52.062;4.508;2022-08-21T03:52:57;101870.75;;;17.92;63.79
17936;BME280;9093;52.062;4.508;2022-08-21T03:55:37;101875.19;;;17.93;63.84
17936;BME280;9093;52.062;4.508;2022-08-21T03:58:18;101868.16;;;17.90;63.86
17936;BME280;9093;52.062;4.508;2022-08-21T04:00:59;101869.03;;;17.91;64.00
17936;BME280;9093;52.062;4.508;2022-08-21T04:03:40;101869.03;;;17.91;64.03
17936;BME280;9093;52.062;4.508;2022-08-21T04:06:20;101873.47;;;17.92;64.02
17936;BME280;9093;52.062;4.508;2022-08-21T04:09:00;101871.72;;;17.91;63.88
17936;BME280;9093;52.062;4.508;2022-08-21T04:11:41;101873.47;;;17.92;63.98
17936;BME280;9093;52.062;4.508;2022-08-21T04:14:21;101877.91;;;17.93;63.99
17936;BME280;9093;52.062;4.508;2022-08-21T04:17:02;101870.84;;;17.90;64.11
17936;BME280;9093;52.062;4.508;2022-08-21T04:19:42;101870.13;;;17.88;64.06
17936;BME280;9093;52.062;4.508;2022-08-21T04:22:22;101884.69;;;17.86;64.10
17936;BME280;9093;52.062;4.508;2022-08-21T04:25:02;101884.69;;;17.86;64.14
17936;BME280;9093;52.062;4.508;2022-08-21T04:27:43;101880.47;;;17.82;64.24
17936;BME280;9093;52.062;4.508;2022-08-21T04:30:23;101886.06;;;17.79;64.33
17936;BME280;9093;52.062;4.508;2022-08-21T04:33:04;101885.34;;;17.77;64.38
17936;BME280;9093;52.062;4.508;2022-08-21T04:35:44;101894.41;;;17.76;64.50
17936;BME280;9093;52.062;4.508;2022-08-21T04:38:24;101894.50;;;17.74;64.55
17936;BME280;9093;52.062;4.508;2022-08-21T04:41:06;101889.00;;;17.76;64.50
17936;BME280;9093;52.062;4.508;2022-08-21T04:43:46;101896.13;;;17.77;64.66
17936;BME280;9093;52.062;4.508;2022-08-21T04:46:26;101897.84;;;17.78;64.64
17936;BME280;9093;52.062;4.508;2022-08-21T04:49:06;101900.53;;;17.78;64.64
17936;BME280;9093;52.062;4.508;2022-08-21T04:51:46;101895.13;;;17.78;64.65
17936;BME280;9093;52.062;4.508;2022-08-21T04:54:27;101896.13;;;17.77;64.58
17936;BME280;9093;52.062;4.508;2022-08-21T04:57:07;101910.59;;;17.76;64.67
17936;BME280;9093;52.062;4.508;2022-08-21T04:59:50;101908.97;;;17.73;64.91
17936;BME280;9093;52.062;4.508;2022-08-21T05:02:31;101909.94;;;17.72;64.89
17936;BME280;9093;52.062;4.508;2022-08-21T05:05:12;101915.78;;;17.79;64.79
17936;BME280;9093;52.062;4.508;2022-08-21T05:07:53;101907.50;;;17.82;64.69
17936;BME280;9093;52.062;4.508;2022-08-21T05:10:33;101910.94;;;17.84;64.85
17936;BME280;9093;52.062;4.508;2022-08-21T05:13:14;101908.44;;;17.81;65.00
17936;BME280;9093;52.062;4.508;2022-08-21T05:15:54;101903.47;;;17.75;65.02
17936;BME280;9093;52.062;4.508;2022-08-21T05:18:37;101903.66;;;17.72;65.07
17936;BME280;9093;52.062;4.508;2022-08-21T05:21:17;101908.88;;;17.75;65.18
17936;BME280;9093;52.062;4.508;2022-08-21T05:23:57;101911.06;;;17.82;65.13
17936;BME280;9093;52.062;4.508;2022-08-21T05:26:37;101905.44;;;17.85;65.08
17936;BME280;9093;52.062;4.508;2022-08-21T05:29:18;101908.81;;;17.89;64.96
17936;BME280;9093;52.062;4.508;2022-08-21T05:31:59;101916.69;;;17.92;64.96
17936;BME280;9093;52.062;4.508;2022-08-21T05:34:39;101908.41;;;17.95;64.94
17936;BME280;9093;52.062;4.508;2022-08-21T05:37:19;101907.81;;;17.90;65.20
17936;BME280;9093;52.062;4.508;2022-08-21T05:39:59;101916.25;;;17.85;65.21
17936;BME280;9093;52.062;4.508;2022-08-21T05:42:40;101904.38;;;17.88;65.43
17936;BME280;9093;52.062;4.508;2022-08-21T05:45:21;101909.38;;;17.94;65.35
17936;BME280;9093;52.062;4.508;2022-08-21T05:48:21;101910.00;;;17.97;65.25
17936;BME280;9093;52.062;4.508;2022-08-21T05:51:06;101902.00;;;17.96;65.47
17936;BME280;9093;52.062;4.508;2022-08-21T05:53:46;101904.59;;;17.97;65.47
17936;BME280;9093;52.062;4.508;2022-08-21T05:56:27;101902.88;;;17.96;65.53
17936;BME280;9093;52.062;4.508;2022-08-21T05:59:07;101900.94;;;17.98;65.69
17936;BME280;9093;52.062;4.508;2022-08-21T06:01:47;101902.56;;;18.01;65.72
17936;BME280;9093;52.062;4.508;2022-08-21T06:04:28;101914.91;;;18.05;65.73
17936;BME280;9093;52.062;4.508;2022-08-21T06:07:08;101905.06;;;18.04;65.89
17936;BME280;9093;52.062;4.508;2022-08-21T06:09:49;101910.25;;;18.07;65.85
17936;BME280;9093;52.062;4.508;2022-08-21T06:12:29;101913.69;;;18.09;65.86
17936;BME280;9093;52.062;4.508;2022-08-21T06:15:09;101921.06;;;18.07;66.15
17936;BME280;9093;52.062;4.508;2022-08-21T06:17:50;101915.66;;;18.07;66.31
17936;BME280;9093;52.062;4.508;2022-08-21T06:20:31;101907.34;;;18.10;66.22
17936;BME280;9093;52.062;4.508;2022-08-21T06:23:12;101904.34;;;18.15;66.41
17936;BME280;9093;52.062;4.508;2022-08-21T06:25:52;101903.25;;;18.17;66.08
17936;BME280;9093;52.062;4.508;2022-08-21T06:28:33;101895.03;;;18.19;66.61
17936;BME280;9093;52.062;4.508;2022-08-21T06:31:17;101901.84;;;18.24;66.76
17936;BME280;9093;52.062;4.508;2022-08-21T06:33:57;101899.69;;;18.29;66.60
17936;BME280;9093;52.062;4.508;2022-08-21T06:36:38;101899.59;;;18.31;66.59
17936;BME280;9093;52.062;4.508;2022-08-21T06:39:18;101899.25;;;18.35;66.88
17936;BME280;9093;52.062;4.508;2022-08-21T06:41:59;101913.56;;;18.37;66.92
17936;BME280;9093;52.062;4.508;2022-08-21T06:44:39;101902.50;;;18.40;66.85
17936;BME280;9093;52.062;4.508;2022-08-21T06:47:19;101908.59;;;18.44;67.15
17936;BME280;9093;52.062;4.508;2022-08-21T06:50:00;101912.91;;;18.46;66.88
17936;BME280;9093;52.062;4.508;2022-08-21T06:52:40;101903.63;;;18.51;67.21
17936;BME280;9093;52.062;4.508;2022-08-21T06:55:20;101899.72;;;18.55;67.12
17936;BME280;9093;52.062;4.508;2022-08-21T06:58:01;101905.81;;;18.58;67.23
17936;BME280;9093;52.062;4.508;2022-08-21T07:00:44;101910.91;;;18.63;67.20
17936;BME280;9093;52.062;4.508;2022-08-21T07:03:27;101904.28;;;18.67;67.42
17936;BME280;9093;52.062;4.508;2022-08-21T07:06:08;101906.34;;;18.76;67.41
17936;BME280;9093;52.062;4.508;2022-08-21T07:08:48;101893.88;;;18.86;67.37
17936;BME280;9093;52.062;4.508;2022-08-21T07:11:29;101898.63;;;18.95;67.33
17936;BME280;9093;52.062;4.508;2022-08-21T07:14:09;101905.34;;;19.02;67.41
17936;BME280;9093;52.062;4.508;2022-08-21T07:16:49;101899.69;;;19.05;67.25
17936;BME280;9093;52.062;4.508;2022-08-21T07:19:30;101906.63;;;19.09;67.65
17936;BME280;9093;52.062;4.508;2022-08-21T07:22:10;101912.34;;;19.17;67.66
17936;BME280;9093;52.062;4.508;2022-08-21T07:24:51;101909.19;;;19.23;67.54
17936;BME280;9093;52.062;4.508;2022-08-21T07:27:32;101908.50;;;19.33;67.61
17936;BME280;9093;52.062;4.508;2022-08-21T07:30:12;101908.06;;;19.39;67.80
17936;BME280;9093;52.062;4.508;2022-08-21T07:32:52;101905.88;;;19.44;67.75
17936;BME280;9093;52.062;4.508;2022-08-21T07:35:33;101903.06;;;19.45;67.91
17936;BME280;9093;52.062;4.508;2022-08-21T07:38:13;101910.25;;;19.46;67.96
17936;BME280;9093;52.062;4.508;2022-08-21T07:40:54;101910.41;;;19.43;67.98
17936;BME280;9093;52.062;4.508;2022-08-21T07:43:36;101910.31;;;19.45;68.05
17936;BME280;9093;52.062;4.508;2022-08-21T07:46:16;101909.13;;;19.49;68.21
17936;BME280;9093;52.062;4.508;2022-08-21T07:48:57;101916.06;;;19.53;68.00
17936;BME280;9093;52.062;4.508;2022-08-21T07:51:37;101906.50;;;19.60;68.29
17936;BME280;9093;52.062;4.508;2022-08-21T07:54:17;101903.19;;;19.67;68.09
17936;BME280;9093;52.062;4.508;2022-08-21T07:56:57;101903.28;;;19.79;67.99
17936;BME280;9093;52.062;4.508;2022-08-21T07:59:38;101909.38;;;19.93;67.85
17936;BME280;9093;52.062;4.508;2022-08-21T08:02:25;101910.41;;;20.03;67.95
17936;BME280;9093;52.062;4.508;2022-08-21T08:05:07;101901.16;;;20.06;67.99
17936;BME280;9093;52.062;4.508;2022-08-21T08:07:47;101911.66;;;20.11;68.21
17936;BME280;9093;52.062;4.508;2022-08-21T08:10:28;101912.16;;;20.16;68.06
17936;BME280;9093;52.062;4.508;2022-08-21T08:13:08;101913.53;;;20.21;68.07
17936;BME280;9093;52.062;4.508;2022-08-21T08:15:48;101909.50;;;20.27;68.07
17936;BME280;9093;52.062;4.508;2022-08-21T08:18:28;101904.56;;;20.32;68.03
17936;BME280;9093;52.062;4.508;2022-08-21T08:21:09;101904.38;;;20.35;68.05
17936;BME280;9093;52.062;4.508;2022-08-21T08:23:49;101902.16;;;20.40;68.03
17936;BME280;9093;52.062;4.508;2022-08-21T08:26:29;101898.22;;;20.44;67.99
17936;BME280;9093;52.062;4.508;2022-08-21T08:29:09;101896.53;;;20.54;68.13
17936;BME280;9093;52.062;4.508;2022-08-21T08:31:50;101901.09;;;20.65;67.79
17936;BME280;9093;52.062;4.508;2022-08-21T08:34:30;101897.38;;;20.77;67.82
17936;BME280;9093;52.062;4.508;2022-08-21T08:37:10;101898.50;;;20.85;67.89
17936;BME280;9093;52.062;4.508;2022-08-21T08:39:50;101895.16;;;20.93;67.85
17936;BME280;9093;52.062;4.508;2022-08-21T08:42:32;101900.47;;;21.06;67.67
17936;BME280;9093;52.062;4.508;2022-08-21T08:45:15;101893.22;;;21.17;67.49
17936;BME280;9093;52.062;4.508;2022-08-21T08:47:58;101885.44;;;21.24;67.46
17936;BME280;9093;52.062;4.508;2022-08-21T08:50:43;101887.66;;;21.30;67.40
17936;BME280;9093;52.062;4.508;2022-08-21T08:56:07;101889.13;;;21.34;67.35
17936;BME280;9093;52.062;4.508;2022-08-21T08:58:48;101895.91;;;21.29;67.06
17936;BME280;9093;52.062;4.508;2022-08-21T09:01:30;101895.44;;;21.23;67.21
17936;BME280;9093;52.062;4.508;2022-08-21T09:04:11;101902.34;;;21.16;67.27
17936;BME280;9093;52.062;4.508;2022-08-21T09:07:01;101899.25;;;21.10;67.41
17936;BME280;9093;52.062;4.508;2022-08-21T09:10:04;101899.00;;;21.02;67.23
17936;BME280;9093;52.062;4.508;2022-08-21T09:16:31;101903.44;;;20.92;67.26
17936;BME280;9093;52.062;4.508;2022-08-21T09:21:45;101901.94;;;20.87;67.03
17936;BME280;9093;52.062;4.508;2022-08-21T09:24:32;101907.38;;;20.87;66.96
17936;BME280;9093;52.062;4.508;2022-08-21T09:27:14;101904.44;;;20.91;66.82
17936;BME280;9093;52.062;4.508;2022-08-21T09:29:54;101907.16;;;20.91;66.92
17936;BME280;9093;52.062;4.508;2022-08-21T09:32:35;101904.31;;;20.92;66.77
17936;BME280;9093;52.062;4.508;2022-08-21T09:35:17;101911.09;;;20.98;66.55
17936;BME280;9093;52.062;4.508;2022-08-21T09:37:58;101915.41;;;21.00;66.59
17936;BME280;9093;52.062;4.508;2022-08-21T09:40:42;101907.03;;;21.03;66.38
17936;BME280;9093;52.062;4.508;2022-08-21T09:43:23;101903.94;;;21.08;66.53
17936;BME280;9093;52.062;4.508;2022-08-21T09:46:07;101904.09;;;21.17;66.22
17936;BME280;9093;52.062;4.508;2022-08-21T09:48:48;101898.75;;;21.27;65.99
17936;BME280;9093;52.062;4.508;2022-08-21T09:51:30;101900.56;;;21.38;65.88
17936;BME280;9093;52.062;4.508;2022-08-21T09:54:14;101904.91;;;21.40;65.76
17936;BME280;9093;52.062;4.508;2022-08-21T09:56:57;101908.38;;;21.42;65.65
17936;BME280;9093;52.062;4.508;2022-08-21T10:00:06;101898.50;;;21.41;65.63
17936;BME280;9093;52.062;4.508;2022-08-21T10:02:47;101894.50;;;21.45;65.42
17936;BME280;9093;52.062;4.508;2022-08-21T10:05:27;101895.25;;;21.47;65.30
17936;BME280;9093;52.062;4.508;2022-08-21T10:08:15;101889.81;;;21.47;65.24
17936;BME280;9093;52.062;4.508;2022-08-21T10:11:04;101909.84;;;21.46;64.96
17936;BME280;9093;52.062;4.508;2022-08-21T10:13:51;101906.13;;;21.47;65.09
17936;BME280;9093;52.062;4.508;2022-08-21T10:16:42;101896.47;;;21.54;65.02
17936;BME280;9093;52.062;4.508;2022-08-21T10:25:26;101908.00;;;21.79;64.63
17936;BME280;9093;52.062;4.508;2022-08-21T10:40:31;101897.56;;;22.06;63.48
17936;BME280;9093;52.062;4.508;2022-08-21T10:43:17;101899.78;;;22.01;63.65
17936;BME280;9093;52.062;4.508;2022-08-21T10:46:06;101896.84;;;21.93;63.51
17936;BME280;9093;52.062;4.508;2022-08-21T10:48:54;101900.66;;;21.90;63.57
17936;BME280;9093;52.062;4.508;2022-08-21T10:54:38;101904.97;;;22.04;63.32
17936;BME280;9093;52.062;4.508;2022-08-21T10:57:27;101909.44;;;22.05;62.96
17936;BME280;9093;52.062;4.508;2022-08-21T11:00:11;101903.25;;;22.03;62.93
17936;BME280;9093;52.062;4.508;2022-08-21T11:02:56;101899.66;;;22.02;62.87
17936;BME280;9093;52.062;4.508;2022-08-21T11:05:42;101910.13;;;22.07;62.55
17936;BME280;9093;52.062;4.508;2022-08-21T11:08:26;101912.09;;;22.16;62.63
17936;BME280;9093;52.062;4.508;2022-08-21T11:11:12;101909.13;;;22.19;62.44
17936;BME280;9093;52.062;4.508;2022-08-21T11:13:58;101898.22;;;22.19;62.63
17936;BME280;9093;52.062;4.508;2022-08-21T11:16:51;101922.31;;;22.24;62.71
17936;BME280;9093;52.062;4.508;2022-08-21T11:19:35;101911.69;;;22.21;62.69
17936;BME280;9093;52.062;4.508;2022-08-21T11:22:19;101905.38;;;22.20;62.56
17936;BME280;9093;52.062;4.508;2022-08-21T11:25:07;101911.56;;;22.22;62.14
17936;BME280;9093;52.062;4.508;2022-08-21T11:27:53;101905.13;;;22.23;62.10
17936;BME280;9093;52.062;4.508;2022-08-21T11:30:48;101907.53;;;22.37;61.67
17936;BME280;9093;52.062;4.508;2022-08-21T11:33:36;101912.88;;;22.49;61.39
17936;BME280;9093;52.062;4.508;2022-08-21T11:36:31;101914.53;;;22.61;60.99
17936;BME280;9093;52.062;4.508;2022-08-21T11:39:21;101910.50;;;22.76;60.47
17936;BME280;9093;52.062;4.508;2022-08-21T11:42:09;101906.69;;;22.88;59.63
17936;BME280;9093;52.062;4.508;2022-08-21T11:45:10;101913.84;;;22.89;59.41
17936;BME280;9093;52.062;4.508;2022-08-21T11:48:07;101916.06;;;22.95;59.33
17936;BME280;9093;52.062;4.508;2022-08-21T11:50:50;101910.72;;;22.94;59.00
17936;BME280;9093;52.062;4.508;2022-08-21T11:53:34;101919.84;;;22.83;58.88
17936;BME280;9093;52.062;4.508;2022-08-21T11:56:20;101914.06;;;22.76;59.05
17936;BME280;9093;52.062;4.508;2022-08-21T11:59:05;101916.41;;;22.81;58.64
17936;BME280;9093;52.062;4.508;2022-08-21T12:01:48;101902.69;;;22.92;58.26
17936;BME280;9093;52.062;4.508;2022-08-21T12:07:17;101908.47;;;22.99;57.27
17936;BME280;9093;52.062;4.508;2022-08-21T12:09:58;101903.88;;;22.99;56.95
17936;BME280;9093;52.062;4.508;2022-08-21T12:12:40;101917.94;;;23.04;56.42
17936;BME280;9093;52.062;4.508;2022-08-21T12:18:19;101907.72;;;23.37;55.41
17936;BME280;9093;52.062;4.508;2022-08-21T12:21:01;101919.56;;;23.56;55.65
17936;BME280;9093;52.062;4.508;2022-08-21T12:23:57;101910.81;;;23.72;54.98
17936;BME280;9093;52.062;4.508;2022-08-21T12:26:49;101917.31;;;23.90;54.80
17936;BME280;9093;52.062;4.508;2022-08-21T12:29:36;101907.28;;;24.00;55.06
17936;BME280;9093;52.062;4.508;2022-08-21T12:42:58;101919.56;;;23.66;55.08
17936;BME280;9093;52.062;4.508;2022-08-21T12:45:41;101925.03;;;23.66;54.94
17936;BME280;9093;52.062;4.508;2022-08-21T12:51:25;101921.06;;;23.89;54.47
17936;BME280;9093;52.062;4.508;2022-08-21T12:54:06;101923.63;;;24.00;54.18
17936;BME280;9093;52.062;4.508;2022-08-21T12:56:54;101929.66;;;24.04;53.28
17936;BME280;9093;52.062;4.508;2022-08-21T12:59:39;101927.53;;;24.08;52.94
17936;BME280;9093;52.062;4.508;2022-08-21T13:02:20;101913.31;;;24.14;52.19
17936;BME280;9093;52.062;4.508;2022-08-21T13:05:03;101927.81;;;24.24;52.47
17936;BME280;9093;52.062;4.508;2022-08-21T13:07:45;101929.81;;;24.22;52.21
17936;BME280;9093;52.062;4.508;2022-08-21T13:10:27;101935.13;;;24.04;52.21
17936;BME280;9093;52.062;4.508;2022-08-21T13:13:11;101925.34;;;23.92;52.61
17936;BME280;9093;52.062;4.508;2022-08-21T13:16:00;101923.91;;;23.88;52.53
17936;BME280;9093;52.062;4.508;2022-08-21T13:18:54;101918.91;;;23.83;52.37
17936;BME280;9093;52.062;4.508;2022-08-21T13:21:38;101933.41;;;23.93;52.25
17936;BME280;9093;52.062;4.508;2022-08-21T13:24:20;101928.09;;;23.82;52.01
17936;BME280;9093;52.062;4.508;2022-08-21T13:27:02;101925.50;;;23.81;52.10
17936;BME280;9093;52.062;4.508;2022-08-21T13:32:34;101925.94;;;24.15;51.64
17936;BME280;9093;52.062;4.508;2022-08-21T13:35:19;101926.81;;;24.25;51.32
17936;BME280;9093;52.062;4.508;2022-08-21T13:40:49;101918.44;;;24.17;51.25
17936;BME280;9093;52.062;4.508;2022-08-21T13:43:31;101925.22;;;24.13;51.24
17936;BME280;9093;52.062;4.508;2022-08-21T13:46:12;101927.81;;;23.95;51.64
17936;BME280;9093;52.062;4.508;2022-08-21T13:48:53;101928.22;;;23.81;51.99
17936;BME280;9093;52.062;4.508;2022-08-21T13:51:35;101933.50;;;23.73;52.22
17936;BME280;9093;52.062;4.508;2022-08-21T13:54:20;101936.81;;;23.67;52.52
17936;BME280;9093;52.062;4.508;2022-08-21T13:57:02;101935.81;;;23.58;52.76
17936;BME280;9093;52.062;4.508;2022-08-21T13:59:42;101939.09;;;23.52;52.92
17936;BME280;9093;52.062;4.508;2022-08-21T14:02:23;101929.88;;;23.53;52.90
17936;BME280;9093;52.062;4.508;2022-08-21T14:05:04;101948.56;;;23.57;53.01
17936;BME280;9093;52.062;4.508;2022-08-21T14:07:44;101930.31;;;23.48;52.81
17936;BME280;9093;52.062;4.508;2022-08-21T14:10:24;101935.16;;;23.45;53.24
17936;BME280;9093;52.062;4.508;2022-08-21T14:13:21;101935.28;;;23.43;53.37
17936;BME280;9093;52.062;4.508;2022-08-21T14:16:20;101937.16;;;23.43;53.28
17936;BME280;9093;52.062;4.508;2022-08-21T14:21:41;101944.47;;;23.42;53.31
17936;BME280;9093;52.062;4.508;2022-08-21T14:27:04;101937.88;;;23.45;53.87
17936;BME280;9093;52.062;4.508;2022-08-21T14:29:45;101929.97;;;23.42;53.86
17936;BME280;9093;52.062;4.508;2022-08-21T14:32:27;101938.56;;;23.37;54.12
17936;BME280;9093;52.062;4.508;2022-08-21T14:35:09;101925.81;;;23.38;54.11
17936;BME280;9093;52.062;4.508;2022-08-21T14:37:51;101939.56;;;23.36;54.20
17936;BME280;9093;52.062;4.508;2022-08-21T14:40:32;101941.13;;;23.29;54.09
17936;BME280;9093;52.062;4.508;2022-08-21T14:43:13;101947.56;;;23.28;54.16
17936;BME280;9093;52.062;4.508;2022-08-21T14:45:53;101941.81;;;23.21;54.42
17936;BME280;9093;52.062;4.508;2022-08-21T14:48:33;101942.22;;;23.17;54.74
17936;BME280;9093;52.062;4.508;2022-08-21T14:51:14;101946.22;;;23.13;54.47
17936;BME280;9093;52.062;4.508;2022-08-21T14:53:54;101951.81;;;23.11;54.44
17936;BME280;9093;52.062;4.508;2022-08-21T14:56:34;101943.75;;;23.10;54.47
17936;BME280;9093;52.062;4.508;2022-08-21T14:59:14;101945.31;;;23.03;54.76
17936;BME280;9093;52.062;4.508;2022-08-21T15:01:55;101938.00;;;23.03;54.87
17936;BME280;9093;52.062;4.508;2022-08-21T15:04:36;101944.63;;;23.10;54.57
17936;BME280;9093;52.062;4.508;2022-08-21T15:07:16;101932.00;;;23.09;54.64
17936;BME280;9093;52.062;4.508;2022-08-21T15:09:56;101934.03;;;23.07;54.64
17936;BME280;9093;52.062;4.508;2022-08-21T15:12:36;101936.47;;;23.10;54.82
17936;BME280;9093;52.062;4.508;2022-08-21T15:15:17;101944.63;;;23.10;54.79
17936;BME280;9093;52.062;4.508;2022-08-21T15:17:57;101946.38;;;23.11;54.95
17936;BME280;9093;52.062;4.508;2022-08-21T15:20:37;101949.94;;;23.12;55.00